Time;durP1;ratioP1;P1;durP2;ratioP2;P2;SDS_P1;SDS_P2;PMS_P1;PMS_P2;Temp;Humidity;BMP_temperature;BMP_pressure;BME280_temperature;BME280_humidity;BME280_pressure;Samples;Min_cycle;Max_cycle;Signal;HPM_P1;HPM_P2
2022/09/08 00:01:38;;;;;;;14.60;5.33;;;;;;;-145.18;100.00;46660.41;4973510;28;20101;-67
2022/09/08 00:04:04;;;;;;;13.97;5.90;;;;;;;-145.18;100.00;46660.41;4974650;28;20035;-67
2022/09/08 00:06:32;;;;;;;14.30;5.77;;;;;;;-145.18;100.00;46660.41;4973759;28;20047;-68
2022/09/08 00:08:58;;;;;;;13.93;5.47;;;;;;;-145.18;100.00;46660.41;4974338;28;20027;-67
2022/09/08 00:11:28;;;;;;;18.10;5.70;;;;;;;-145.18;100.00;46660.41;4973398;28;20479;-67
2022/09/08 00:13:57;;;;;;;15.90;6.37;;;;;;;-145.18;100.00;46660.41;4974007;28;20058;-67
2022/09/08 00:16:22;;;;;;;17.07;5.53;;;;;;;-145.18;100.00;46660.41;4973883;28;20050;-68
2022/09/08 00:18:50;;;;;;;13.97;4.97;;;;;;;-145.18;100.00;46660.41;4974196;28;20385;-67
2022/09/08 00:21:17;;;;;;;17.17;5.50;;;;;;;-145.18;100.00;46660.41;4973682;28;20178;-68
2022/09/08 00:23:42;;;;;;;13.57;5.20;;;;;;;-145.18;100.00;46660.41;4973826;28;20467;-68
2022/09/08 00:26:08;;;;;;;18.13;4.90;;;;;;;-145.18;100.00;46660.41;4973815;28;20035;-68
2022/09/08 00:28:34;;;;;;;11.13;4.73;;;;;;;-145.18;100.00;46660.41;4973812;28;20467;-68
2022/09/08 00:30:59;;;;;;;12.27;4.70;;;;;;;-145.18;100.00;46660.41;4973567;28;20031;-68
2022/09/08 00:33:25;;;;;;;11.70;4.90;;;;;;;-145.18;100.00;46660.41;4973728;28;20034;-68
2022/09/08 00:35:51;;;;;;;13.60;4.80;;;;;;;-145.18;100.00;46660.41;4973652;28;20395;-68
2022/09/08 00:38:17;;;;;;;17.67;5.20;;;;;;;-145.18;100.00;46660.41;4973409;28;20082;-68
2022/09/08 00:40:46;;;;;;;19.10;5.13;;;;;;;-145.18;100.00;46660.41;4973635;28;20122;-68
2022/09/08 00:43:30;;;;;;;9.37;4.50;;;;;;;-145.18;100.00;46660.41;4973083;28;20027;-68
2022/09/08 00:45:58;;;;;;;14.97;5.37;;;;;;;-145.18;100.00;46660.41;4973457;28;20026;-68
2022/09/08 00:48:24;;;;;;;18.73;5.20;;;;;;;-145.18;100.00;46660.41;4973618;28;20031;-68
2022/09/08 00:50:51;;;;;;;10.63;4.60;;;;;;;-145.18;100.00;46660.41;4972843;28;20038;-68
2022/09/08 00:53:18;;;;;;;14.23;5.10;;;;;;;-145.18;100.00;46660.41;4973311;28;20094;-68
2022/09/08 00:55:44;;;;;;;7.23;3.80;;;;;;;-145.18;100.00;46660.41;4973325;28;20523;-68
2022/09/08 00:58:10;;;;;;;9.97;4.87;;;;;;;-145.18;100.00;46677.97;4973094;28;20041;-68
2022/09/08 01:00:40;;;;;;;17.17;4.83;;;;;;;-145.18;100.00;46660.41;4973111;28;20512;-68
2022/09/08 01:03:08;;;;;;;13.30;4.33;;;;;;;-145.18;100.00;46660.41;4972820;28;20065;-68
2022/09/08 01:05:42;;;;;;;8.47;4.10;;;;;;;-145.18;100.00;46660.41;4973050;28;20431;-68
2022/09/08 01:14:14;;;;;;;14.17;4.60;;;;;;;-145.18;100.00;46677.97;4973180;28;20105;-67
2022/09/08 01:16:42;;;;;;;11.30;4.30;;;;;;;-145.18;100.00;46660.41;4972427;28;20062;-68
2022/09/08 01:19:16;;;;;;;16.33;4.83;;;;;;;-145.18;100.00;46660.41;4973149;28;20035;-67
2022/09/08 01:21:48;;;;;;;11.97;4.20;;;;;;;-145.18;100.00;46660.41;4972645;28;20380;-68
2022/09/08 01:24:50;;;;;;;11.17;4.30;;;;;;;-145.18;100.00;46681.88;4973066;28;20499;-68
2022/09/08 01:27:30;;;;;;;12.20;4.10;;;;;;;-145.18;100.00;46679.94;4941587;28;20105;-67
2022/09/08 01:30:06;;;;;;;15.53;3.77;;;;;;;-145.18;100.00;46679.94;4972917;28;20031;-68
2022/09/08 01:32:35;;;;;;;14.63;4.20;;;;;;;-145.18;100.00;46677.97;4972100;28;20510;-68
2022/09/08 01:35:01;;;;;;;19.37;4.37;;;;;;;-145.18;100.00;46681.88;4972456;28;20035;-67
2022/09/08 01:37:28;;;;;;;14.30;3.77;;;;;;;-145.18;100.00;46679.94;4972231;28;20484;-67
2022/09/08 01:39:53;;;;;;;17.13;5.13;;;;;;;-145.18;100.00;46660.41;4972723;28;20042;-66
2022/09/08 01:42:19;;;;;;;16.07;4.47;;;;;;;-145.18;100.00;46660.41;4972205;28;20034;-66
2022/09/08 01:44:44;;;;;;;15.00;4.50;;;;;;;-145.18;100.00;46660.41;4972413;28;20027;-66
2022/09/08 01:47:10;;;;;;;20.57;4.00;;;;;;;-145.18;100.00;46660.41;4972198;28;20452;-66
2022/09/08 01:49:36;;;;;;;11.47;3.50;;;;;;;-145.18;100.00;46660.41;4972346;28;20117;-66
2022/09/08 01:52:02;;;;;;;12.53;3.43;;;;;;;-145.18;100.00;46660.41;4972003;28;20114;-66
2022/09/08 01:54:28;;;;;;;9.20;3.40;;;;;;;-145.18;100.00;46679.94;4972388;28;20038;-66
2022/09/08 01:56:54;;;;;;;13.73;3.97;;;;;;;-145.18;100.00;46660.41;4954514;28;20074;-66
2022/09/08 01:59:20;;;;;;;8.47;4.13;;;;;;;-145.18;100.00;46660.41;4972327;28;20082;-66
2022/09/08 02:01:45;;;;;;;12.73;3.53;;;;;;;-145.18;100.00;46660.41;5346345;23;20031;-66
2022/09/08 02:04:11;;;;;;;11.53;3.83;;;;;;;-145.18;100.00;46660.41;4933215;29;20039;-65
2022/09/08 02:06:36;;;;;;;13.90;3.73;;;;;;;-145.18;100.00;46660.41;4933645;29;20563;-66
2022/09/08 02:09:02;;;;;;;9.33;3.57;;;;;;;-145.18;100.00;46660.41;4932879;29;20031;-66
2022/09/08 02:11:28;;;;;;;11.07;3.50;;;;;;;-145.18;100.00;46660.41;4933556;29;20039;-65
2022/09/08 02:13:53;;;;;;;12.53;3.70;;;;;;;-145.18;100.00;46660.41;4933071;29;20039;-65
2022/09/08 02:16:18;;;;;;;13.47;3.00;;;;;;;-145.18;100.00;46660.41;4933632;29;20477;-65
2022/09/08 02:18:44;;;;;;;10.10;3.20;;;;;;;-145.18;100.00;46660.41;4933206;29;20036;-65
2022/09/08 02:21:12;;;;;;;8.90;3.27;;;;;;;-145.18;100.00;46660.41;4933163;29;20457;-65
2022/09/08 02:23:39;;;;;;;9.67;2.97;;;;;;;-145.18;100.00;46660.41;4933227;29;20498;-65
2022/09/08 02:26:06;;;;;;;10.73;3.07;;;;;;;-145.18;100.00;46660.41;4933312;29;20099;-65
2022/09/08 02:28:31;;;;;;;12.03;3.30;;;;;;;-145.18;100.00;46660.41;4933180;29;20031;-65
2022/09/08 02:31:01;;;;;;;9.37;3.33;;;;;;;-145.18;100.00;46679.94;4933116;29;20028;-66
2022/09/08 02:33:29;;;;;;;8.83;2.97;;;;;;;-145.18;100.00;46660.41;4932920;29;20079;-65
2022/09/08 02:35:55;;;;;;;11.40;3.67;;;;;;;-145.18;100.00;46660.41;4933004;29;20035;-65
2022/09/08 02:38:22;;;;;;;9.50;3.10;;;;;;;-145.18;100.00;46660.41;4933115;29;20394;-66
2022/09/08 02:40:47;;;;;;;9.70;2.83;;;;;;;-145.18;100.00;46660.41;4933381;29;20067;-65
2022/09/08 02:43:13;;;;;;;12.53;3.87;;;;;;;-145.18;100.00;46660.41;4932621;29;20051;-66
2022/09/08 02:45:39;;;;;;;10.13;3.17;;;;;;;-145.18;100.00;46660.41;4933470;29;20028;-65
2022/09/08 02:48:05;;;;;;;11.20;3.23;;;;;;;-145.18;100.00;46660.41;4932619;29;20035;-66
2022/09/08 02:50:30;;;;;;;8.20;3.07;;;;;;;-145.18;100.00;46660.41;4933304;29;20070;-66
2022/09/08 02:52:56;;;;;;;11.83;3.30;;;;;;;-145.18;100.00;46660.41;4932514;29;20173;-66
2022/09/08 02:55:23;;;;;;;7.47;2.93;;;;;;;-145.18;100.00;46660.41;4933428;29;20035;-66
2022/09/08 02:57:52;;;;;;;6.43;3.07;;;;;;;-145.18;100.00;46660.41;4932947;29;20023;-66
2022/09/08 03:00:18;;;;;;;11.03;3.00;;;;;;;-145.18;100.00;46660.41;4932821;29;20515;-66
2022/09/08 03:02:44;;;;;;;8.43;3.10;;;;;;;-145.18;100.00;46660.41;4932540;29;20078;-65
2022/09/08 03:05:09;;;;;;;6.40;3.33;;;;;;;-145.18;100.00;46660.41;4932864;29;20401;-66
2022/09/08 03:07:36;;;;;;;7.90;3.40;;;;;;;-145.18;100.00;46660.41;4932876;29;20043;-66
2022/09/08 03:10:04;;;;;;;9.17;3.10;;;;;;;-145.18;100.00;46660.41;4932766;29;20489;-65
2022/09/08 03:12:30;;;;;;;10.80;3.97;;;;;;;-145.18;100.00;46660.41;4933323;29;20445;-66
2022/09/08 03:14:55;;;;;;;7.20;3.13;;;;;;;-145.18;100.00;46660.41;4936601;29;20123;-66
2022/09/08 03:17:21;;;;;;;11.93;3.40;;;;;;;-145.18;100.00;46660.41;4936532;29;20520;-66
2022/09/08 03:19:46;;;;;;;8.70;2.90;;;;;;;-145.18;100.00;46660.41;4942011;29;20039;-66
2022/09/08 03:22:12;;;;;;;10.57;3.87;;;;;;;-145.18;100.00;46660.41;4954466;29;20234;-66
2022/09/08 03:24:37;;;;;;;8.10;4.10;;;;;;;-145.18;100.00;46660.41;4955246;28;20036;-66
2022/09/08 03:27:03;;;;;;;12.73;4.47;;;;;;;-145.18;100.00;46660.41;4955408;28;20036;-65
2022/09/08 03:29:30;;;;;;;12.73;3.87;;;;;;;-145.18;100.00;46660.41;4955799;29;20075;-66
2022/09/08 03:31:55;;;;;;;10.33;4.10;;;;;;;-145.18;100.00;46660.41;4954755;29;20537;-66
2022/09/08 03:34:21;;;;;;;13.53;3.77;;;;;;;-145.18;100.00;46660.41;4955636;29;20039;-66
2022/09/08 03:36:46;;;;;;;11.37;4.27;;;;;;;-145.18;100.00;46660.41;4937665;29;20047;-66
2022/09/08 03:39:11;;;;;;;8.30;3.50;;;;;;;-145.18;100.00;46660.41;4955189;29;20071;-65
2022/09/08 03:41:37;;;;;;;10.77;3.60;;;;;;;-145.18;100.00;46660.41;4955851;28;20027;-65
2022/09/08 03:44:03;;;;;;;11.53;4.10;;;;;;;-145.18;100.00;46660.41;4955443;29;20047;-65
2022/09/08 03:46:28;;;;;;;11.27;4.17;;;;;;;-145.18;100.00;46660.41;4955723;29;20528;-65
2022/09/08 03:48:54;;;;;;;12.13;4.37;;;;;;;-145.18;100.00;46660.41;4955210;29;20090;-65
2022/09/08 03:51:22;;;;;;;9.10;4.33;;;;;;;-145.18;100.00;46660.41;4955509;29;20488;-66
2022/09/08 03:53:49;;;;;;;10.37;4.13;;;;;;;-145.18;100.00;46660.41;4955127;29;20042;-65
2022/09/08 03:56:14;;;;;;;11.73;4.70;;;;;;;-145.18;100.00;46660.41;4955477;29;20054;-65
2022/09/08 03:58:41;;;;;;;9.17;4.00;;;;;;;-145.18;100.00;46660.41;4955321;29;20110;-65
2022/09/08 04:01:12;;;;;;;9.77;4.10;;;;;;;-145.18;100.00;46660.41;4955155;29;20059;-65
2022/09/08 04:03:37;;;;;;;12.33;3.90;;;;;;;-145.18;100.00;46660.41;4951520;29;20139;-65
2022/09/08 04:06:03;;;;;;;9.90;4.23;;;;;;;-145.18;100.00;46660.41;4942915;29;20366;-65
2022/09/08 04:08:29;;;;;;;12.63;3.80;;;;;;;-145.18;100.00;46660.41;4945154;29;20485;-65
2022/09/08 04:10:55;;;;;;;8.43;3.27;;;;;;;-145.18;100.00;46660.41;4943769;29;20060;-65
2022/09/08 04:13:20;;;;;;;8.13;3.20;;;;;;;-145.18;100.00;46656.50;4946589;29;20285;-66
2022/09/08 04:15:46;;;;;;;9.83;4.10;;;;;;;-145.18;100.00;46660.41;4955118;29;20037;-65
2022/09/08 04:18:12;;;;;;;8.57;3.77;;;;;;;-145.18;100.00;46658.44;4954360;29;20491;-65
2022/09/08 04:20:38;;;;;;;9.00;3.37;;;;;;;-145.18;100.00;46660.41;4955200;29;20392;-66
2022/09/08 04:23:05;;;;;;;6.83;3.60;;;;;;;-145.18;100.00;46658.44;4954552;28;20562;-66
2022/09/08 04:25:30;;;;;;;7.50;3.20;;;;;;;-145.18;100.00;46660.41;4953684;28;20035;-66
2022/09/08 04:27:56;;;;;;;8.40;3.60;;;;;;;-145.18;100.00;46658.44;4954201;29;20395;-66
2022/09/08 04:30:21;;;;;;;8.77;3.73;;;;;;;-145.18;100.00;46660.41;4954325;29;20609;-66
2022/09/08 04:32:47;;;;;;;11.20;4.10;;;;;;;-145.18;100.00;46660.41;4954347;29;20400;-66
2022/09/08 04:35:12;;;;;;;9.67;4.00;;;;;;;-145.18;100.00;46656.50;4954608;29;20043;-67
2022/09/08 04:37:38;;;;;;;12.50;4.23;;;;;;;-145.18;100.00;46658.44;4954559;29;20077;-66
2022/09/08 04:40:06;;;;;;;11.30;4.60;;;;;;;-145.18;100.00;46656.50;4937474;29;20591;-66
2022/09/08 04:42:33;;;;;;;12.97;5.03;;;;;;;-145.18;100.00;46656.50;4954230;29;20042;-66
2022/09/08 04:44:59;;;;;;;12.60;5.00;;;;;;;-145.18;100.00;46652.59;4954609;29;20120;-66
2022/09/08 04:47:24;;;;;;;14.03;5.13;;;;;;;-145.18;100.00;46656.50;4954013;29;20074;-66
2022/09/08 04:49:50;;;;;;;11.77;5.97;;;;;;;-145.18;100.00;46656.50;4954566;29;20114;-66
2022/09/08 04:52:16;;;;;;;11.10;5.40;;;;;;;-145.18;100.00;46656.50;4953901;28;20031;-66
2022/09/08 04:54:42;;;;;;;10.63;5.43;;;;;;;-145.18;100.00;46656.50;4951028;29;20117;-66
2022/09/08 04:57:08;;;;;;;12.43;6.07;;;;;;;-145.18;100.00;46658.44;4951069;29;20092;-66
2022/09/08 04:59:34;;;;;;;10.80;5.73;;;;;;;-145.18;100.00;46652.59;4953875;29;20031;-66
2022/09/08 05:01:59;;;;;;;12.23;5.40;;;;;;;-145.18;100.00;46658.44;4953121;29;20082;-66
2022/09/08 05:04:25;;;;;;;18.97;6.43;;;;;;;-145.18;100.00;46656.50;4953763;29;20129;-66
2022/09/08 05:06:50;;;;;;;14.80;6.80;;;;;;;-145.18;100.00;46658.44;4953985;29;20142;-66
2022/09/08 05:09:15;;;;;;;17.87;7.70;;;;;;;-145.18;100.00;46656.50;4971487;28;20066;-66
2022/09/08 05:11:41;;;;;;;12.37;6.17;;;;;;;-145.18;100.00;46652.59;4973307;28;20039;-66
2022/09/08 05:14:07;;;;;;;18.67;7.60;;;;;;;-145.18;100.00;46644.78;4961010;28;20039;-66
2022/09/08 05:16:33;;;;;;;15.07;7.10;;;;;;;-145.18;100.00;46652.59;4954261;29;20389;-66
2022/09/08 05:19:01;;;;;;;14.03;7.90;;;;;;;-145.18;100.00;46654.53;4953436;29;20120;-67
2022/09/08 05:21:29;;;;;;;18.37;8.60;;;;;;;-145.18;100.00;46652.59;4953968;29;20035;-66
2022/09/08 05:23:56;;;;;;;14.57;7.83;;;;;;;-145.18;100.00;46652.59;4953614;29;20086;-66
2022/09/08 05:26:23;;;;;;;18.13;7.80;;;;;;;-145.18;100.00;46658.44;4953625;28;20039;-66
2022/09/08 05:28:49;;;;;;;14.73;7.93;;;;;;;-145.18;100.00;46652.59;4953604;29;20145;-67
2022/09/08 05:31:20;;;;;;;18.13;8.97;;;;;;;-145.18;100.00;46654.53;4954005;29;20118;-67
2022/09/08 05:33:46;;;;;;;14.17;8.93;;;;;;;-145.18;100.00;46654.53;4953361;29;20077;-67
2022/09/08 05:36:22;;;;;;;16.27;8.63;;;;;;;-145.18;100.00;46654.53;4953104;28;20062;-67
2022/09/08 05:38:48;;;;;;;16.13;8.70;;;;;;;-145.18;100.00;46652.59;4953631;29;20391;-67
2022/09/08 05:41:14;;;;;;;16.23;9.30;;;;;;;-145.18;100.00;46652.59;4953738;29;20039;-67
2022/09/08 05:43:40;;;;;;;17.90;8.83;;;;;;;-145.18;100.00;46654.53;4953547;29;20429;-67
2022/09/08 05:46:06;;;;;;;16.67;9.43;;;;;;;-145.18;100.00;46652.59;4949263;29;20027;-67
2022/09/08 05:48:32;;;;;;;17.33;9.30;;;;;;;-145.18;100.00;46642.81;4934304;29;20046;-67
2022/09/08 05:50:58;;;;;;;15.67;8.90;;;;;;;-145.18;100.00;46652.59;4937758;28;20058;-67
2022/09/08 05:53:24;;;;;;;14.83;9.03;;;;;;;-145.18;100.00;46652.59;4933448;29;20048;-68
2022/09/08 05:56:01;;;;;;;15.40;9.60;;;;;;;-145.18;100.00;46652.59;4934127;29;20043;-67
2022/09/08 05:58:27;;;;;;;19.83;10.23;;;;;;;-145.18;100.00;46654.53;4933858;29;20036;-68
2022/09/08 06:00:58;;;;;;;16.47;9.97;;;;;;;-145.18;100.00;46650.63;4933892;29;20035;-67
2022/09/08 06:03:24;;;;;;;18.87;10.97;;;;;;;-145.18;100.00;46650.63;4933089;29;20070;-68
2022/09/08 06:05:49;;;;;;;23.47;11.37;;;;;;;-145.18;100.00;46642.81;4934090;29;20058;-68
2022/09/08 06:08:16;;;;;;;17.53;10.57;;;;;;;-145.18;100.00;46650.63;4916262;29;20035;-68
2022/09/08 06:10:41;;;;;;;21.17;10.63;;;;;;;-145.18;100.00;46652.59;4936154;29;20042;-68
2022/09/08 06:13:06;;;;;;;18.10;10.03;;;;;;;-145.18;100.00;46642.81;4933046;29;20048;-68
2022/09/08 06:15:33;;;;;;;18.13;9.70;;;;;;;-145.18;100.00;46642.81;4933429;29;20078;-68
2022/09/08 06:18:01;;;;;;;18.50;10.03;;;;;;;-145.18;100.00;46642.81;4933466;29;20071;-68
2022/09/08 06:20:26;;;;;;;17.70;10.07;;;;;;;-145.18;100.00;46652.59;4934019;29;20102;-68
2022/09/08 06:22:52;;;;;;;19.33;10.03;;;;;;;-145.18;100.00;46652.59;4933102;29;20492;-68
2022/09/08 06:25:17;;;;;;;19.50;10.67;;;;;;;-145.18;100.00;46656.50;4933298;29;20110;-68
2022/09/08 06:28:03;;;;;;;16.47;10.37;;;;;;;-145.18;100.00;46654.53;4933223;29;20140;-68
2022/09/08 06:30:28;;;;;;;17.23;10.50;;;;;;;-145.18;100.00;46650.63;4933457;29;20024;-69
2022/09/08 06:33:06;;;;;;;18.33;11.73;;;;;;;-145.18;100.00;46654.53;4937739;29;20036;-68
2022/09/08 06:35:42;;;;;;;21.30;12.00;;;;;;;-145.18;100.00;46654.53;4945825;28;20023;-68
2022/09/08 06:38:19;;;;;;;16.73;11.10;;;;;;;-145.18;100.00;46642.81;4938525;29;20031;-68
2022/09/08 06:40:49;;;;;;;21.87;12.07;;;;;;;-145.18;100.00;46642.81;4933389;29;20078;-68
2022/09/08 06:43:22;;;;;;;17.00;11.63;;;;;;;-145.18;100.00;46642.81;4946497;28;20027;-68
2022/09/08 06:45:56;;;;;;;21.73;12.20;;;;;;;-145.18;100.00;46652.59;4951835;29;20031;-68
2022/09/08 06:48:31;;;;;;;23.03;13.93;;;;;;;-145.18;100.00;46642.81;4951022;29;20063;-68
2022/09/08 06:50:59;;;;;;;24.50;15.15;;;;;;;-145.18;100.00;46652.59;4951684;29;20059;-69
2022/09/08 06:53:32;;;;;;;21.77;14.30;;;;;;;-145.18;100.00;46652.59;4951341;29;20035;-69
2022/09/08 06:56:19;;;;;;;22.77;15.10;;;;;;;-145.18;100.00;46650.63;4952211;29;20035;-69
2022/09/08 06:58:46;;;;;;;23.27;14.73;;;;;;;-145.18;100.00;46656.50;4951745;29;20114;-68
2022/09/08 07:01:20;;;;;;;26.23;14.73;;;;;;;-145.18;100.00;46654.53;4951878;29;20043;-68
2022/09/08 07:04:03;;;;;;;19.70;13.23;;;;;;;-145.18;100.00;46654.53;4951191;29;20058;-68
2022/09/08 07:06:38;;;;;;;17.80;11.73;;;;;;;-145.18;100.00;46654.53;4952186;29;20043;-68
2022/09/08 07:09:15;;;;;;;20.23;11.30;;;;;;;-145.18;100.00;46656.50;4951632;29;20038;-68
2022/09/08 07:11:46;;;;;;;19.73;11.43;;;;;;;-145.18;100.00;46654.53;4952066;29;20031;-68
2022/09/08 07:14:39;;;;;;;21.03;12.07;;;;;;;-145.18;100.00;46656.50;4951401;29;20035;-68
2022/09/08 07:17:19;;;;;;;17.73;12.53;;;;;;;-145.18;100.00;46652.59;4951643;29;20053;-68
2022/09/08 07:19:56;;;;;;;19.60;14.03;;;;;;;-145.18;100.00;46654.53;4951479;29;20516;-68
2022/09/08 07:22:40;;;;;;;22.20;13.30;;;;;;;-145.18;100.00;46654.53;4951941;29;20392;-68
2022/09/08 07:25:11;;;;;;;24.13;15.43;;;;;;;-145.18;100.00;46654.53;4951749;29;20086;-68
2022/09/08 07:27:38;;;;;;;24.30;14.57;;;;;;;-145.18;100.00;46656.50;4951823;29;20114;-68
2022/09/08 07:30:05;;;;;;;21.13;14.17;;;;;;;-145.18;100.00;46656.50;4947508;29;20032;-68
2022/09/08 07:32:36;;;;;;;23.70;16.00;;;;;;;-145.18;100.00;46658.44;4948574;29;20027;-68
2022/09/08 07:35:11;;;;;;;20.30;15.70;;;;;;;-145.18;100.00;46652.59;4945473;29;20020;-68
2022/09/08 07:37:47;;;;;;;22.20;14.70;;;;;;;-145.18;100.00;46613.50;4940581;29;20479;-68
2022/09/08 07:40:17;;;;;;;22.67;15.27;;;;;;;-145.18;100.00;46611.56;4937886;29;20075;-68
2022/09/08 07:42:55;;;;;;;24.17;15.80;;;;;;;-145.18;100.00;46613.50;4932691;29;20405;-68
2022/09/08 07:45:27;;;;;;;21.70;15.60;;;;;;;-145.18;100.00;46615.47;4932222;29;20028;-68
2022/09/08 07:48:16;;;;;;;21.40;15.77;;;;;;;-145.18;100.00;46609.59;4931976;29;20028;-68
2022/09/08 07:50:55;;;;;;;18.23;15.20;;;;;;;-145.18;100.00;46609.59;4941873;29;20043;-68
2022/09/08 07:53:49;;;;;;;26.17;15.93;;;;;;;-145.18;100.00;46615.47;4951282;29;20082;-68
2022/09/08 07:56:26;;;;;;;21.57;13.43;;;;;;;-145.18;100.00;46613.50;4951694;29;20039;-68
2022/09/08 07:59:25;;;;;;;23.93;15.47;;;;;;;-145.18;100.00;46611.56;4952353;28;20439;-68
2022/09/08 08:02:11;;;;;;;20.77;15.23;;;;;;;-145.18;100.00;46617.41;4955074;29;20134;-68
2022/09/08 08:04:58;;;;;;;18.70;13.95;;;;;;;-145.18;100.00;46617.41;4924462;29;20075;-68
2022/09/08 08:07:50;;;;;;;22.47;15.87;;;;;;;-145.18;100.00;46619.38;4954795;29;20388;-68
2022/09/08 08:10:30;;;;;;;20.33;15.80;;;;;;;-145.18;100.00;46621.31;4954422;29;20078;-68
2022/09/08 08:13:10;;;;;;;19.17;15.70;;;;;;;-145.18;100.00;46621.31;4954553;29;20023;-68
2022/09/08 08:15:47;;;;;;;18.63;15.70;;;;;;;-145.18;100.00;46623.28;4954816;29;20059;-68
2022/09/08 08:18:27;;;;;;;17.43;15.57;;;;;;;-145.18;100.00;46625.22;4954290;29;20504;-68
2022/09/08 08:21:13;;;;;;;16.73;14.93;;;;;;;-145.18;100.00;46629.13;4954748;29;20505;-68
2022/09/08 08:23:55;;;;;;;19.75;15.35;;;;;;;-145.18;100.00;46629.13;4954565;29;20039;-68
2022/09/08 08:26:34;;;;;;;18.33;15.57;;;;;;;-145.18;100.00;46629.13;4954515;29;20480;-68
2022/09/08 08:29:24;;;;;;;19.33;15.33;;;;;;;-145.18;100.00;46638.91;4953389;29;20035;-68
2022/09/08 08:32:07;;;;;;;14.77;12.97;;;;;;;-145.18;100.00;46638.91;4954463;28;20035;-68
2022/09/08 08:34:52;;;;;;;16.83;11.47;;;;;;;-145.18;100.00;46636.94;4954142;29;20038;-68
2022/09/08 08:37:23;;;;;;;12.90;9.67;;;;;;;-145.18;100.00;46638.91;4954397;29;20023;-68
2022/09/08 08:39:55;;;;;;;11.20;9.07;;;;;;;-145.18;100.00;46640.88;4953848;29;20039;-68
2022/09/08 08:42:23;;;;;;;12.03;8.67;;;;;;;-145.18;100.00;46633.06;4954405;29;20027;-68
2022/09/08 08:45:00;;;;;;;11.10;7.67;;;;;;;-145.18;100.00;46636.94;4953856;29;20031;-68
2022/09/08 08:47:37;;;;;;;11.73;8.83;;;;;;;-145.18;100.00;46638.91;4954144;28;20027;-69
2022/09/08 08:50:25;;;;;;;15.73;10.00;;;;;;;-145.18;100.00;46646.72;4949978;29;20024;-68
2022/09/08 08:53:28;;;;;;;14.40;9.93;;;;;;;-145.18;100.00;46642.81;4934885;29;20063;-68
2022/09/08 08:56:32;;;;;;;12.33;10.20;;;;;;;-145.18;100.00;46638.91;4933890;29;20040;-68
2022/09/08 08:59:05;;;;;;;14.77;10.80;;;;;;;-145.18;100.00;46638.91;4934503;29;20083;-68
2022/09/08 09:01:47;;;;;;;22.80;13.00;;;;;;;-145.18;100.00;46638.91;4934648;29;20087;-68
2022/09/08 09:05:04;;;;;;;14.60;12.57;;;;;;;-145.18;100.00;46640.88;4933986;29;20047;-68
2022/09/08 09:07:49;;;;;;;12.43;11.20;;;;;;;-145.18;100.00;46644.78;4909640;29;20195;-68
2022/09/08 09:10:29;;;;;;;15.83;11.33;;;;;;;-145.18;100.00;46644.78;4933378;29;20032;-68
2022/09/08 09:13:40;;;;;;;16.90;11.60;;;;;;;-145.18;100.00;46650.63;4934597;29;20332;-68
2022/09/08 09:16:14;;;;;;;14.77;11.90;;;;;;;-145.18;100.00;46646.72;4934691;29;20095;-68
2022/09/08 09:18:48;;;;;;;13.43;10.90;;;;;;;-145.18;100.00;46648.69;4934229;29;20519;-67
2022/09/08 09:21:38;;;;;;;18.67;11.07;;;;;;;-145.18;100.00;46648.69;4934220;29;20308;-68
2022/09/08 09:24:44;;;;;;;16.77;11.37;;;;;;;-145.18;100.00;46648.69;4933953;29;20227;-68
2022/09/08 09:27:22;;;;;;;13.30;10.43;;;;;;;-145.18;100.00;46644.78;4934161;29;20067;-68
2022/09/08 09:29:57;;;;;;;11.53;10.33;;;;;;;-145.18;100.00;46648.69;4933834;29;20034;-67
2022/09/08 09:32:42;;;;;;;15.10;10.15;;;;;;;-145.18;100.00;46652.59;4934112;29;20440;-68
2022/09/08 09:35:10;;;;;;;12.93;11.33;;;;;;;-145.18;100.00;46652.59;4933604;29;20039;-68
2022/09/08 09:37:44;;;;;;;16.53;9.63;;;;;;;-145.18;100.00;46656.50;4934384;29;20452;-68
2022/09/08 09:40:44;;;;;;;12.53;8.97;;;;;;;-145.18;100.00;46668.22;4941537;29;20401;-68
2022/09/08 09:43:16;;;;;;;12.67;9.30;;;;;;;-145.18;100.00;46670.16;4941974;29;20507;-68
2022/09/08 09:45:44;;;;;;;14.47;8.70;;;;;;;-145.18;100.00;46676.03;4942236;29;20035;-68
2022/09/08 09:48:43;;;;;;;13.67;9.17;;;;;;;-145.18;100.00;46677.97;4941897;29;20039;-67
2022/09/08 09:51:48;;;;;;;18.10;9.43;;;;;;;-145.18;100.00;46672.13;4939842;29;20039;-67
2022/09/08 09:54:22;;;;;;;16.37;8.47;;;;;;;-145.18;100.00;46674.06;4933229;29;20044;-67
2022/09/08 09:57:09;;;;;;;14.77;7.67;;;;;;;-145.18;100.00;46674.06;4938669;29;20146;-67
2022/09/08 09:59:49;;;;;;;12.30;6.70;;;;;;;-145.18;100.00;46668.22;4944686;29;20397;-67
2022/09/08 10:02:50;;;;;;;13.90;6.47;;;;;;;-145.18;100.00;46672.13;4950830;29;20035;-67
2022/09/08 10:06:01;;;;;;;11.70;4.57;;;;;;;-145.18;100.00;46674.06;4952639;28;20043;-67
2022/09/08 10:08:48;;;;;;;10.17;4.70;;;;;;;-145.18;100.00;46670.16;4935154;29;20468;-67
2022/09/08 10:11:35;;;;;;;8.53;3.30;;;;;;;-145.18;100.00;46670.16;4952710;29;20035;-67
2022/09/08 10:14:19;;;;;;;9.73;3.53;;;;;;;-145.18;100.00;46672.13;4952166;29;20392;-67
2022/09/08 10:17:21;;;;;;;11.57;3.83;;;;;;;-145.18;100.00;46672.13;4952895;29;20043;-67
2022/09/08 10:20:04;;;;;;;8.80;4.20;;;;;;;-145.18;100.00;46590.06;4952260;29;20042;-67
2022/09/08 10:23:25;;;;;;;7.50;4.40;;;;;;;-145.18;100.00;46537.34;4952360;28;20035;-67
2022/09/08 10:26:14;;;;;;;9.53;4.27;;;;;;;-145.18;100.00;46543.19;4885881;29;20059;-67
2022/09/08 10:29:17;;;;;;;6.43;3.83;;;;;;;-145.18;100.00;46558.81;4952083;29;20031;-67
2022/09/08 10:32:11;;;;;;;11.20;5.00;;;;;;;-145.18;100.00;46547.09;4934288;29;20436;-67
2022/09/08 10:35:00;;;;;;;8.27;3.30;;;;;;;-145.18;100.00;46554.91;4952191;29;20027;-67
2022/09/08 10:37:35;;;;;;;8.63;3.00;;;;;;;-145.18;100.00;46556.88;4952301;29;20035;-67
2022/09/08 10:40:36;;;;;;;12.25;3.22;;;;;;;-145.18;100.00;46562.72;4952236;29;20031;-67
2022/09/08 10:43:29;;;;;;;13.43;3.33;;;;;;;-145.18;100.00;46556.88;4920125;29;20076;-66
2022/09/08 10:46:29;;;;;;;9.90;2.37;;;;;;;-145.18;100.00;46551.00;4952368;29;20130;-67
2022/09/08 10:49:19;;;;;;;9.27;2.97;;;;;;;-145.18;100.00;46558.81;4952284;28;20038;-67
2022/09/08 10:52:29;;;;;;;12.37;3.17;;;;;;;-145.18;100.00;46558.81;4935047;29;20035;-67
2022/09/08 10:55:28;;;;;;;11.03;3.40;;;;;;;-145.18;100.00;46562.72;4840044;29;20039;-67
2022/09/08 10:58:22;;;;;;;13.53;3.67;;;;;;;-145.18;100.00;46566.63;4933144;29;20519;-66
2022/09/08 11:00:47;;;;;;;11.27;3.37;;;;;;;-145.18;100.00;46564.69;4932476;29;20107;-67
2022/09/08 11:03:55;;;;;;;15.37;3.33;;;;;;;-145.18;100.00;46599.84;4949179;29;20126;-67
2022/09/08 11:06:44;;;;;;;10.20;2.83;;;;;;;-145.18;100.00;46595.94;4952234;29;20087;-67
2022/09/08 11:09:24;;;;;;;7.47;3.00;;;;;;;-145.18;100.00;46564.69;4915528;29;20532;-66
2022/09/08 11:12:21;;;;;;;9.50;3.20;;;;;;;-145.18;100.00;46597.88;4951770;29;20122;-66
2022/09/08 11:15:09;;;;;;;;;;;;;;;-145.18;100.00;46609.59;4952161;28;20031;-66
2022/09/08 11:17:47;;;;;;;9.27;3.13;;;;;;;-145.18;100.00;46603.75;4929661;29;19914;-66
2022/09/08 11:20:52;;;;;;;11.83;3.10;;;;;;;-145.18;100.00;46584.22;4951585;29;20047;-66
2022/09/08 11:23:20;;;;;;;8.17;3.13;;;;;;;-145.18;100.00;46584.22;4873857;29;20029;-66
2022/09/08 11:25:57;;;;;;;9.43;2.80;;;;;;;-145.18;100.00;46556.88;4873654;29;20079;-66
2022/09/08 11:28:39;;;;;;;12.10;2.97;;;;;;;-145.18;100.00;46576.41;4918171;28;20130;-66
2022/09/08 11:31:27;;;;;;;11.97;3.27;;;;;;;-145.18;100.00;46613.50;4952118;28;20038;-66
2022/09/08 11:34:14;;;;;;;8.80;2.90;;;;;;;-145.18;100.00;46617.41;4952422;28;20098;-66
2022/09/08 11:37:13;;;;;;;14.60;3.00;;;;;;;-145.18;100.00;46625.22;4955766;29;20027;-66
2022/09/08 11:40:05;;;;;;;10.30;3.10;;;;;;;-145.18;100.00;46595.94;4955261;29;20034;-66